sa Pobla, Spain
Current Conditions -  °F | °C
As of 1:30 AM on Tuesday 25 Nov 2014 (Local Time) from LEPA Reporting Station
Few Clouds Few Clouds  
Wind Chill: 61°   Ceiling: Unl
Heat Index: 61°   Visibility: 6mi
Dew Point: 59°   Wind: 1mph
Humidity: 94%   Direction: 350°N
Pressure: 30.03"   Gusts: NA
Location:  39.77°N, 3.02°E
Report Text: LEPA 250030Z 35001KT 9999 FEW060 16/15 Q1017 NOSIG
Loading
Personal Weather Stations






























Interactive Weather Map New forecast layout! Learn more

10-Day Weather Forecast

Advertisements
Track Severe Weather on mobile